Station: Woomera

  Atmospheric Gas Attenuation - ITU Rec 676-11   --------------- db/100km ---------------
Date Time Temp RH % AH g/m3 Dew Point Wind Direction Speed kph Gust kph Barometer mB Rainfall Since 9am 24GHz 47GHz 76GHz 122GHz 134GHz 241GHz
15 01:50 10.5 96 9.31 9.9 15 17 1019.2 0 21.3 28.3 44.8 117.7 113.2 389.7
15 01:40 10.5 96 9.31 9.9 17 19 1019.1 0 21.3 28.3 44.8 117.7 113.2 389.7
15 01:30 10.2 95 9.04 9.4 17 17 1019.1 0 20.7 28.0 43.8 115.0 109.8 377.8
15 01:20 10.4 94 9.06 9.5 15 15 1019.1 0 20.7 27.9 43.8 115.0 109.8 377.8
15 01:10 10.6 94 9.18 9.7 13 15 1019.2 0 21.0 28.1 44.2 116.1 111.2 382.8
15 01:00 10.6 93 9.08 9.5 15 17 1019 0 20.8 27.9 43.8 114.9 109.8 377.8
15 00:50 10.8 93 9.19 9.7 15 15 1019.2 0 21.0 28.0 44.1 115.9 111.1 382.3
15 00:40 10.8 92 9.1 9.6 13 15 1019.2 0 20.8 27.9 43.7 114.8 109.8 377.8
15 00:30 11.1 91 9.17 9.7 15 17 1019.4 0 20.9 27.9 43.9 115.2 110.4 379.9
15 00:20 10.9 90 8.95 9.3 13 15 1019.6 0 20.5 27.6 43.1 113.0 107.6 370.1
15 00:10 10.9 90 8.95 9.3 15 15 1019.7 0 20.5 27.6 43.1 113.0 107.6 370.1
15 00:00 11 89 8.91 9.3 15 17 1019.7 0 20.4 27.5 42.8 112.4 106.9 367.7
14 23:50 11 88 8.81 9.1 15 17 1019.5 0 20.2 27.3 42.4 111.3 105.5 362.8
14 23:40 11 87 8.71 8.9 15 17 1019.6 0 20.0 27.2 42.0 110.2 104.1 358.0
14 23:30 11.1 86 8.66 8.8 11 13 1019.6 0 19.8 27.0 41.7 109.5 103.3 355.1
14 23:20 11.3 85 8.67 8.9 11 11 1019.6 0 19.9 27.0 41.7 109.3 103.1 354.7
14 23:10 11.6 85 8.84 9.2 13 13 1019.4 0 20.2 27.2 42.2 110.8 105.1 361.4
14 23:00 11.4 84 8.62 8.8 15 17 1019.5 0 19.7 26.9 41.4 108.6 102.3 351.8
14 22:50 11.5 83 8.57 8.7 15 17 1019.3 0 19.6 26.8 41.1 107.9 101.5 348.9
14 22:40 11.6 80 8.32 8.3 11 13 1019.3 0 19.1 26.3 40.0 105.0 97.9 336.5
14 22:30 11.7 80 8.37 8.4 9 9 1019.3 0 19.2 26.4 40.2 105.4 98.5 338.5
14 22:20 12 78 8.31 8.3 13 15 1019.2 0 19.0 26.2 39.8 104.3 97.3 334.3
14 22:10 12.1 77 8.26 8.2 15 15 1019.4 0 18.9 26.1 39.5 103.7 96.5 331.6
14 22:00 12.3 77 8.36 8.4 11 13 1019.4 0 19.1 26.2 39.9 104.5 97.6 335.4
14 21:50 12.4 76 8.3 8.3 11 11 1019.5 0 19.0 26.0 39.6 103.7 96.7 332.2
14 21:40 12.1 75 8.04 7.8 11 13 1019.6 0 18.5 25.7 38.7 101.3 93.6 321.4
14 21:30 12.3 73 7.93 7.6 11 13 1019.4 0 18.2 25.5 38.1 99.9 91.9 315.4
14 21:20 12.6 73 8.08 7.9 11 13 1019.2 0 18.5 25.6 38.6 101.1 93.5 321.1
14 21:10 12.9 71 8 7.8 15 15 1019.2 0 18.3 25.4 38.1 99.8 92.1 316.2
14 21:00 13.1 70 7.99 7.8 13 15 1019 0 18.3 25.3 38.0 99.4 91.7 314.8
14 20:50 13.2 69 7.92 7.6 13 13 1019.3 0 18.2 25.2 37.6 98.6 90.7 311.3
14 20:40 13.3 67 7.74 7.3 15 15 1019.1 0 17.8 24.9 36.9 96.6 88.2 302.7
14 20:30 13.3 64 7.39 6.6 11 13 1019 0 17.0 24.3 35.5 92.9 83.7 286.9
14 20:20 13.7 63 7.46 6.8 11 13 1019 0 17.2 24.3 35.6 93.2 84.2 288.6
14 20:10 14.1 62 7.52 6.9 11 11 1019 0 17.3 24.3 35.7 93.3 84.5 289.8
14 20:00 14.4 62 7.66 7.2 17 20 1018.7 0 17.6 24.4 36.1 94.4 85.9 294.9
14 19:50 14.8 61 7.73 7.4 19 20 1018.6 0 17.7 24.4 36.1 94.6 86.4 296.5
14 19:40 14.9 60 7.65 7.2 19 20 1018.5 0 17.5 24.3 35.8 93.7 85.3 292.5
14 19:30 15 60 7.69 7.3 19 24 1018.3 0 17.6 24.3 35.9 93.9 85.6 293.9
14 19:20 14.8 60 7.6 7.1 15 17 1018.3 0 17.4 24.2 35.6 93.2 84.7 290.6
14 19:10 15.1 59 7.61 7.2 17 19 1018.3 0 17.4 24.2 35.5 93.0 84.5 290.0
14 19:00 15.4 59 7.75 7.4 17 20 1018.2 0 17.7 24.3 35.9 94.1 85.9 295.0
14 18:50 15.6 58 7.71 7.4 20 22 1018.1 0 17.6 24.2 35.7 93.4 85.2 292.5
14 18:40 15.9 57 7.72 7.4 19 20 1017.9 0 17.6 24.1 35.6 93.1 85.0 291.8
14 18:30 16.2 56 7.72 7.4 20 24 1017.8 0 17.6 24.0 35.4 92.8 84.7 290.7
14 18:20 16.5 55 7.72 7.4 20 22 1017.7 0 17.6 23.9 35.3 92.4 84.3 289.6
14 18:10 16.6 54 7.63 7.3 20 22 1017.7 0 17.4 23.8 34.9 91.4 83.1 285.3
14 18:00 16.8 53 7.58 7.2 20 26 1017.6 0 17.3 23.6 34.7 90.7 82.3 282.4
14 17:50 16.9 52 7.48 7 22 24 1017.5 0 17.1 23.5 34.2 89.6 81.0 277.8
14 17:40 17.2 52 7.61 7.3 24 28 1017.3 0 17.3 23.6 34.6 90.5 82.2 282.2
14 17:30 17.3 51 7.51 7.1 24 32 1017.3 0 17.1 23.4 34.2 89.4 80.9 277.6
14 17:20 17.6 50 7.5 7.1 24 30 1017.1 0 17.1 23.3 34.0 89.0 80.5 276.1
14 17:10 17.8 50 7.59 7.2 22 26 1017.1 0 17.3 23.4 34.2 89.6 81.4 279.3
14 17:00 18 49 7.53 7.1 24 33 1017 0 17.1 23.2 33.9 88.8 80.4 276.0
14 16:50 18.1 49 7.57 7.2 20 24 1017 0 17.2 23.3 34.0 89.1 80.8 277.4
14 16:40 18.4 48 7.55 7.2 32 35 1017 0 17.2 23.2 33.8 88.6 80.3 275.5
14 16:30 18.6 47 7.48 7.1 30 39 1017 0 17.0 23.0 33.5 87.7 79.2 271.9
14 16:20 18.7 46 7.36 6.9 28 32 1017 0 16.7 22.8 33.0 86.4 77.7 266.5
14 16:10 18.9 45 7.29 6.7 28 32 1016.9 0 16.6 22.7 32.7 85.5 76.7 263.0
14 16:00 18.8 45 7.25 6.6 28 32 1016.9 0 16.5 22.6 32.6 85.2 76.3 261.6
14 15:50 18.8 45 7.25 6.6 33 39 1016.8 0 16.5 22.6 32.6 85.2 76.3 261.6
14 15:40 19.3 46 7.63 7.4 28 32 1016.8 0 17.3 23.0 33.8 88.3 80.3 275.7
14 15:30 18.3 48 7.5 7.1 35 44 1016.8 0 17.0 23.1 33.7 88.2 79.7 273.7
14 15:20 19.1 46 7.54 7.2 30 33 1016.7 0 17.1 23.0 33.5 87.7 79.4 272.6
14 15:10 19 47 7.66 7.4 28 32 1016.6 0 17.4 23.2 34.0 88.9 80.9 277.9
14 15:00 18.6 51 8.12 8.3 30 35 1016.7 0 18.3 23.9 35.8 93.9 86.9 298.8
14 14:50 18.3 51 7.97 8 28 32 1016.7 0 18.0 23.8 35.4 92.7 85.4 293.5
14 14:40 18.9 50 8.1 8.3 30 35 1016.5 0 18.3 23.8 35.6 93.3 86.3 296.8
14 14:30 18.4 52 8.18 8.4 28 35 1016.5 0 18.5 24.1 36.1 94.7 87.9 302.1
14 14:20 18.1 53 8.19 8.4 33 39 1016.7 0 18.5 24.2 36.3 95.2 88.3 303.7
14 14:10 18.3 55 8.6 9.1 32 35 1016.7 0 19.4 24.8 37.8 99.0 93.2 320.7
14 14:00 18.5 54 8.54 9 32 46 1016.8 0 19.2 24.6 37.5 98.2 92.2 317.3
14 13:50 17.8 55 8.35 8.6 33 39 1016.9 0 18.9 24.5 37.1 97.1 90.7 311.8
14 13:40 18.4 54 8.49 8.9 33 37 1017 0 19.1 24.6 37.3 97.8 91.7 315.6
14 13:30 18.5 56 8.86 9.6 32 39 1017 0 19.9 25.1 38.7 101.5 96.2 331.3
14 13:20 17.8 59 8.95 9.7 28 32 1017.2 0 20.1 25.4 39.4 103.3 98.2 338.3
14 13:10 17.5 59 8.8 9.4 30 37 1017.3 0 19.8 25.3 38.9 102.1 96.7 332.9
14 13:00 17.8 58 8.8 9.4 28 39 1017.3 0 19.8 25.2 38.8 101.8 96.3 331.7
14 12:50 18 58 8.91 9.6 24 26 1017.5 0 20.0 25.3 39.1 102.7 97.5 335.8
14 12:40 17.8 58 8.8 9.4 24 28 1017.6 0 19.8 25.2 38.8 101.8 96.3 331.8
14 12:30 18.1 58 8.96 9.7 28 39 1017.8 0 20.1 25.4 39.3 103.1 98.0 337.7
14 12:20 18.3 57 8.91 9.6 28 33 1018 0 20.0 25.3 39.0 102.3 97.2 334.6
14 12:10 17.9 58 8.86 9.5 19 22 1018.3 0 19.9 25.3 39.0 102.3 97.0 334.2
14 12:00 17.9 58 8.86 9.5 22 32 1018.2 0 19.9 25.3 39.0 102.3 97.0 334.2
14 11:50 17.5 61 9.09 9.9 20 20 1018.5 0 20.4 25.8 40.1 105.3 100.5 346.2
14 11:40 17.4 59 8.74 9.3 26 30 1018.6 0 19.7 25.3 38.8 101.8 96.2 331.1
14 11:30 16.9 61 8.77 9.3 22 32 1018.7 0 19.8 25.5 39.2 102.7 97.2 334.5
14 11:20 17.2 60 8.79 9.4 22 26 1018.8 0 19.8 25.4 39.1 102.6 97.1 334.2
14 11:10 17.2 62 9.08 9.9 24 26 1018.9 0 20.4 25.9 40.2 105.6 100.8 347.2
14 11:00 16.9 64 9.2 10.1 24 33 1018.9 0 20.7 26.2 40.9 107.3 102.7 354.0
14 10:50 16.6 65 9.18 10 20 26 1018.8 0 20.7 26.2 40.9 107.4 102.8 354.4
14 10:40 16.6 65 9.18 10 26 30 1018.9 0 20.7 26.2 40.9 107.5 102.9 354.4
14 10:30 16.3 67 9.29 10.2 22 28 1018.9 0 20.9 26.5 41.5 109.0 104.7 360.8
14 10:20 15.7 69 9.23 10 20 24 1019.1 0 20.8 26.6 41.6 109.2 104.7 360.8
14 10:10 15.9 71 9.61 10.7 17 20 1019.3 0 21.6 27.1 43.1 113.1 109.5 377.6
14 10:00 15.8 71 9.56 10.6 22 28 1019.2 0 21.5 27.1 42.9 112.7 109.0 375.7
14 09:50 15.7 72 9.63 10.7 22 24 1019.1 0 21.7 27.2 43.2 113.6 110.1 379.5
14 09:40 15.6 71 9.44 10.4 22 24 1019 0 21.3 26.9 42.5 111.6 107.6 371.0
14 09:30 15.2 73 9.48 10.4 20 26 1018.9 0 21.4 27.1 42.9 112.6 108.7 374.8
14 09:20 15 75 9.62 10.6 22 26 1018.8 0 21.7 27.4 43.6 114.4 110.9 382.3

Last Refresh: 15-Jun-2024 02:06:36

Bureau of Meteorology